createdAt,value
2022-11-12T00:01:52.103Z,69.38
2022-11-12T00:03:53.664Z,77.88
2022-11-12T00:05:55.230Z,77.68
2022-11-12T00:07:56.699Z,77.75
2022-11-12T00:09:58.158Z,69.55
2022-11-12T00:11:59.610Z,72.47
2022-11-12T00:14:01.424Z,71.03
2022-11-12T00:16:02.961Z,74.07
2022-11-12T00:18:04.516Z,67.65
2022-11-12T00:20:07.067Z,65.90
2022-11-12T00:22:08.530Z,74.03
2022-11-12T00:24:09.998Z,74.53
2022-11-12T00:26:11.417Z,86.95
2022-11-12T00:28:12.947Z,82.78
2022-11-12T00:30:14.447Z,81.05
2022-11-12T00:32:15.951Z,63.38
2022-11-12T00:34:17.456Z,59.65
2022-11-12T00:36:18.955Z,70.38
2022-11-12T00:38:20.496Z,73.78
2022-11-12T00:40:22.184Z,76.20
2022-11-12T00:42:23.746Z,73.20
2022-11-12T00:44:25.347Z,68.50
2022-11-12T00:46:26.815Z,70.05
2022-11-12T00:48:28.531Z,67.05
2022-11-12T00:50:30.343Z,76.50
2022-11-12T00:52:31.851Z,78.03
2022-11-12T00:54:33.319Z,66.72
2022-11-12T00:56:35.720Z,124.85
2022-11-12T00:58:37.369Z,81.88
2022-11-12T01:00:39.339Z,69.80
2022-11-12T01:02:45.247Z,80.05
2022-11-12T01:04:49.276Z,76.35
2022-11-12T01:06:50.809Z,69.45
2022-11-12T01:08:52.499Z,72.85
2022-11-12T01:10:54.006Z,75.13
2022-11-12T01:12:55.619Z,68.97
2022-11-12T01:14:57.110Z,86.35
2022-11-12T01:16:58.635Z,80.65
2022-11-12T01:19:01.598Z,129.02
2022-11-12T01:21:04.729Z,71.93
2022-11-12T01:23:06.731Z,88.40
2022-11-12T01:25:08.371Z,75.22
2022-11-12T01:27:09.919Z,85.07
2022-11-12T01:29:11.382Z,87.00
2022-11-12T01:31:18.686Z,108.13
2022-11-12T01:33:20.140Z,95.43
2022-11-12T01:35:21.638Z,97.10
2022-11-12T01:37:23.302Z,89.63
2022-11-12T01:39:24.907Z,86.20
2022-11-12T01:41:29.266Z,80.22
2022-11-12T01:43:30.715Z,68.63
2022-11-12T01:45:32.210Z,80.43
2022-11-12T01:47:35.235Z,80.65
2022-11-12T01:49:57.270Z,86.90
2022-11-12T01:52:06.259Z,78.13
2022-11-12T01:54:10.776Z,71.00
2022-11-12T01:56:13.294Z,59.13
2022-11-12T01:58:18.362Z,63.67
2022-11-12T02:00:20.079Z,55.78
2022-11-12T02:02:21.786Z,59.38
2022-11-12T02:04:24.048Z,55.58
2022-11-12T02:06:25.575Z,66.93
2022-11-12T02:08:29.232Z,68.10
2022-11-12T02:10:30.755Z,68.32
2022-11-12T02:12:51.275Z,72.10
2022-11-12T02:14:52.836Z,58.15
2022-11-12T02:16:54.436Z,59.05
2022-11-12T02:18:56.239Z,60.88
2022-11-12T02:21:03.134Z,64.03
2022-11-12T02:23:06.055Z,57.42
2022-11-12T02:25:12.066Z,62.42
2022-11-12T02:27:13.643Z,58.47
2022-11-12T02:29:15.307Z,58.08
2022-11-12T02:31:16.773Z,55.17
2022-11-12T02:33:18.261Z,51.17
2022-11-12T02:35:19.714Z,56.80
2022-11-12T02:37:21.174Z,62.72
2022-11-12T02:39:22.627Z,58.00
2022-11-12T02:41:24.620Z,65.90
2022-11-12T02:43:26.253Z,63.00
2022-11-12T02:45:28.644Z,56.95
2022-11-12T02:47:30.203Z,54.53
2022-11-12T02:49:31.696Z,46.20
2022-11-12T02:51:33.155Z,55.88
2022-11-12T02:53:35.144Z,52.58
2022-11-12T02:55:36.663Z,56.33
2022-11-12T02:57:39.126Z,51.78
2022-11-12T02:59:40.637Z,56.58
2022-11-12T03:01:42.085Z,48.53
2022-11-12T03:03:43.574Z,56.28
2022-11-12T03:05:46.004Z,49.80
2022-11-12T03:07:47.517Z,51.22
2022-11-12T03:09:49.011Z,55.78
2022-11-12T03:11:50.455Z,55.03
2022-11-12T03:13:52.005Z,60.58
2022-11-12T03:16:00.616Z,64.03
2022-11-12T03:18:02.137Z,53.50
2022-11-12T03:20:03.880Z,51.05
2022-11-12T03:22:05.337Z,53.08
2022-11-12T03:24:07.107Z,48.47
2022-11-12T03:26:08.535Z,48.67
2022-11-12T03:28:13.254Z,50.72
2022-11-12T03:30:14.878Z,57.38
2022-11-12T03:32:16.336Z,59.42
2022-11-12T03:34:17.924Z,60.33
2022-11-12T03:36:19.367Z,51.67
2022-11-12T03:38:20.962Z,57.83
2022-11-12T03:40:22.487Z,57.47
2022-11-12T03:42:23.954Z,55.40
2022-11-12T03:44:25.433Z,55.72
2022-11-12T03:46:26.906Z,47.55
2022-11-12T03:48:28.811Z,52.75
2022-11-12T03:50:31.015Z,61.10
2022-11-12T03:52:32.460Z,62.50
2022-11-12T03:54:33.919Z,73.63
2022-11-12T03:56:35.448Z,79.13
2022-11-12T03:58:36.869Z,72.70
2022-11-12T04:00:38.323Z,76.60
2022-11-12T04:02:39.808Z,64.15
2022-11-12T04:05:00.098Z,76.32
2022-11-12T04:07:20.315Z,64.78
2022-11-12T04:09:21.763Z,68.55
2022-11-12T04:11:23.668Z,77.55
2022-11-12T04:13:28.350Z,74.95
2022-11-12T04:15:29.776Z,63.40
2022-11-12T04:17:49.846Z,66.18
2022-11-12T04:20:10.075Z,67.38
2022-11-12T04:22:11.859Z,72.65
2022-11-12T04:24:33.360Z,68.30
2022-11-12T04:26:34.900Z,74.03
2022-11-12T04:28:36.349Z,62.83
2022-11-12T04:30:37.847Z,56.08
2022-11-12T04:32:45.670Z,65.90
2022-11-12T04:34:47.157Z,79.60
2022-11-12T04:36:48.745Z,78.05
2022-11-12T04:38:50.189Z,70.63
2022-11-12T04:41:10.549Z,80.05
2022-11-12T04:43:33.901Z,71.05
2022-11-12T04:45:35.454Z,116.63
2022-11-12T04:47:41.377Z,98.50
2022-11-12T04:49:42.837Z,81.85
2022-11-12T04:52:03.063Z,113.15
2022-11-12T04:54:04.503Z,87.78
2022-11-12T04:56:06.427Z,74.82
2022-11-12T04:58:09.228Z,75.75
2022-11-12T05:00:11.698Z,79.72
2022-11-12T05:02:13.359Z,73.20
2022-11-12T05:04:14.829Z,77.03
2022-11-12T05:06:34.852Z,71.82
2022-11-12T05:08:36.290Z,81.82
2022-11-12T05:10:37.865Z,80.05
2022-11-12T05:12:39.683Z,84.88
2022-11-12T05:14:41.175Z,79.80
2022-11-12T05:16:42.872Z,88.07
2022-11-12T05:18:44.372Z,70.45
2022-11-12T05:20:45.959Z,80.95
2022-11-12T05:23:04.552Z,63.67
2022-11-12T05:25:08.229Z,68.80
2022-11-12T05:27:18.495Z,81.55
2022-11-12T05:29:20.015Z,81.05
2022-11-12T05:31:21.473Z,82.13
2022-11-12T05:33:23.397Z,192.07
2022-11-12T05:35:24.839Z,117.75
2022-11-12T05:37:26.276Z,119.03
2022-11-12T05:39:27.872Z,165.00
2022-11-12T05:41:39.956Z,141.95
2022-11-12T05:43:50.795Z,119.80
2022-11-12T05:45:52.265Z,87.78
2022-11-12T05:47:53.731Z,91.55
2022-11-12T05:49:55.264Z,89.82
2022-11-12T05:51:56.800Z,84.40
2022-11-12T05:53:58.539Z,80.22
2022-11-12T05:56:04.741Z,80.88
2022-11-12T05:58:07.083Z,72.55
2022-11-12T06:00:09.431Z,67.75
2022-11-12T06:02:10.889Z,76.85
2022-11-12T06:04:14.018Z,83.40
2022-11-12T06:06:15.726Z,67.13
2022-11-12T06:08:17.257Z,79.40
2022-11-12T06:10:20.692Z,68.68
2022-11-12T06:12:22.304Z,77.70
2022-11-12T06:14:23.822Z,81.53
2022-11-12T06:16:25.393Z,81.13
2022-11-12T06:18:27.346Z,73.10
2022-11-12T06:20:29.158Z,79.38
2022-11-12T06:22:30.624Z,89.65
2022-11-12T06:24:35.421Z,92.47
2022-11-12T06:26:38.040Z,101.22
2022-11-12T06:28:39.741Z,91.22
2022-11-12T06:30:41.252Z,86.88
2022-11-12T06:32:46.234Z,87.05
2022-11-12T06:34:47.696Z,75.82
2022-11-12T06:36:49.457Z,71.90
2022-11-12T06:38:51.173Z,62.75
2022-11-12T06:40:52.671Z,68.40
2022-11-12T06:42:58.703Z,64.80
2022-11-12T06:45:00.752Z,60.50
2022-11-12T06:47:02.653Z,54.85
2022-11-12T06:49:04.162Z,46.50
2022-11-12T06:51:08.089Z,58.53
2022-11-12T06:53:09.561Z,81.45
2022-11-12T06:55:11.411Z,107.25
2022-11-12T06:57:12.882Z,92.82
2022-11-12T06:59:14.412Z,90.97
2022-11-12T07:01:17.656Z,139.85
2022-11-12T07:03:19.239Z,276.08
2022-11-12T07:05:20.699Z,158.40
2022-11-12T07:07:22.181Z,107.68
2022-11-12T07:09:23.691Z,88.63
2022-11-12T07:11:25.213Z,58.03
2022-11-12T07:13:26.684Z,53.35
2022-11-12T07:15:28.244Z,45.58
2022-11-12T07:17:30.740Z,49.58
2022-11-12T07:19:32.294Z,48.72
2022-11-12T07:21:33.838Z,67.75
2022-11-12T07:23:36.627Z,85.07
2022-11-12T07:25:38.099Z,85.07
2022-11-12T07:27:39.575Z,76.93
2022-11-12T07:29:49.026Z,57.67
2022-11-12T07:31:50.717Z,85.63
2022-11-12T07:33:52.357Z,63.60
2022-11-12T07:36:15.031Z,31.08
2022-11-12T07:38:16.552Z,27.98
2022-11-12T07:40:18.084Z,33.63
2022-11-12T07:42:19.569Z,33.67
2022-11-12T07:44:21.147Z,36.85
2022-11-12T07:46:25.950Z,32.05
2022-11-12T07:48:29.828Z,29.17
2022-11-12T07:50:31.487Z,29.63
2022-11-12T07:52:33.526Z,32.63
2022-11-12T07:54:35.015Z,47.72
2022-11-12T07:56:36.566Z,66.50
2022-11-12T07:58:38.180Z,46.15
2022-11-12T08:00:39.675Z,45.63
2022-11-12T08:02:41.305Z,46.95
2022-11-12T08:04:42.846Z,39.97
2022-11-12T08:06:44.634Z,31.95
2022-11-12T08:08:46.425Z,30.23
2022-11-12T08:10:47.919Z,27.15
2022-11-12T08:12:49.387Z,25.05
2022-11-12T08:14:50.843Z,27.38
2022-11-12T08:16:52.697Z,25.00
2022-11-12T08:18:54.168Z,23.95
2022-11-12T08:21:07.629Z,27.58
2022-11-12T08:23:09.892Z,25.60
2022-11-12T08:25:11.393Z,28.92
2022-11-12T08:27:12.860Z,28.02
2022-11-12T08:29:15.018Z,33.30
2022-11-12T08:31:20.726Z,23.77
2022-11-12T08:33:22.869Z,23.60
2022-11-12T08:35:25.636Z,22.52
2022-11-12T08:37:27.057Z,22.08
2022-11-12T08:39:28.772Z,22.20
2022-11-12T08:41:30.237Z,21.27
2022-11-12T08:43:31.719Z,21.38
2022-11-12T08:45:35.688Z,21.55
2022-11-12T08:47:37.171Z,19.83
2022-11-12T08:49:42.519Z,20.90
2022-11-12T08:51:46.894Z,18.77
2022-11-12T08:53:48.372Z,20.38
2022-11-12T08:55:54.136Z,24.17
2022-11-12T08:57:55.627Z,23.33
2022-11-12T08:59:57.137Z,19.83
2022-11-12T09:01:58.799Z,17.98
2022-11-12T09:04:00.288Z,22.20
2022-11-12T09:06:06.084Z,20.38
2022-11-12T09:08:13.327Z,16.35
2022-11-12T09:10:15.225Z,17.73
2022-11-12T09:12:19.898Z,18.52
2022-11-12T09:14:21.827Z,17.35
2022-11-12T09:16:24.317Z,19.95
2022-11-12T09:18:26.207Z,20.60
2022-11-12T09:20:28.930Z,21.77
2022-11-12T09:22:32.241Z,23.65
2022-11-12T09:24:33.951Z,20.27
2022-11-12T09:26:35.424Z,20.02
2022-11-12T09:28:36.999Z,21.42
2022-11-12T09:30:42.471Z,25.08
2022-11-12T09:32:43.935Z,24.45
2022-11-12T09:34:45.516Z,25.88
2022-11-12T09:36:46.961Z,60.22
2022-11-12T09:38:48.410Z,66.00
2022-11-12T09:40:52.912Z,51.80
2022-11-12T09:42:54.474Z,29.58
2022-11-12T09:45:07.551Z,26.15
2022-11-12T09:47:20.751Z,27.00
2022-11-12T09:49:36.384Z,38.50
2022-11-12T09:51:43.926Z,116.90
2022-11-12T09:53:56.159Z,42.22
2022-11-12T09:55:57.685Z,46.08
2022-11-12T09:57:59.327Z,28.25
2022-11-12T10:00:02.760Z,29.38
2022-11-12T10:02:28.756Z,30.77
2022-11-12T10:04:40.839Z,29.92
2022-11-12T10:07:14.387Z,22.55
2022-11-12T10:09:34.216Z,26.27
2022-11-12T10:12:17.167Z,27.67
2022-11-12T10:14:39.095Z,15.55
2022-11-12T10:16:49.646Z,16.05
2022-11-12T10:19:03.100Z,18.88
2022-11-12T10:21:14.971Z,19.02
2022-11-12T10:23:26.245Z,15.88
2022-11-12T10:25:28.183Z,21.40
2022-11-12T10:27:38.759Z,19.65
2022-11-12T10:29:51.045Z,19.98
2022-11-12T10:31:52.538Z,19.13
2022-11-12T10:34:12.604Z,21.55
2022-11-12T10:36:28.535Z,28.25
2022-11-12T10:38:33.018Z,20.13
2022-11-12T10:40:39.679Z,21.45
2022-11-12T10:43:02.864Z,18.92
2022-11-12T10:45:30.935Z,19.17
2022-11-12T10:47:42.961Z,25.33
2022-11-12T10:49:44.863Z,46.67
2022-11-12T10:51:55.817Z,24.58
2022-11-12T10:53:57.411Z,22.52
2022-11-12T10:56:05.212Z,25.63
2022-11-12T10:58:09.477Z,30.27
2022-11-12T11:00:14.270Z,26.02
2022-11-12T11:02:18.416Z,24.60
2022-11-12T11:04:32.781Z,24.10
2022-11-12T11:06:34.348Z,27.55
2022-11-12T11:08:44.250Z,24.35
2022-11-12T11:12:47.217Z,22.30
2022-11-12T11:15:06.102Z,20.70
2022-11-12T11:17:17.035Z,18.70
2022-11-12T11:19:19.565Z,24.05
2022-11-12T11:21:44.561Z,24.73
2022-11-12T11:24:00.105Z,21.70
2022-11-12T11:26:24.178Z,22.60
2022-11-12T11:28:42.923Z,20.95
2022-11-12T11:31:25.997Z,26.48
2022-11-12T11:33:49.256Z,22.80
2022-11-12T11:35:59.657Z,26.95
2022-11-12T11:38:15.882Z,25.45
2022-11-12T11:40:41.546Z,26.60
2022-11-12T11:43:15.846Z,25.33
2022-11-12T11:45:54.608Z,20.17
2022-11-12T11:48:21.855Z,20.67
2022-11-12T11:50:30.784Z,22.15
2022-11-12T11:52:41.366Z,29.80
2022-11-12T11:55:01.865Z,23.60
2022-11-12T11:57:11.779Z,25.25
2022-11-12T12:01:38.109Z,21.63
2022-11-12T12:03:48.692Z,24.65
2022-11-12T12:05:57.076Z,27.10
2022-11-12T12:08:04.637Z,29.75
2022-11-12T12:10:11.923Z,41.38
2022-11-12T12:12:34.495Z,32.92
2022-11-12T12:15:28.488Z,35.30
2022-11-12T12:17:50.892Z,31.77
2022-11-12T12:20:01.276Z,48.85
2022-11-12T12:22:07.884Z,34.10
2022-11-12T12:24:27.918Z,27.40
2022-11-12T12:26:48.617Z,28.45
2022-11-12T12:28:55.449Z,33.72
2022-11-12T12:31:01.311Z,39.72
2022-11-12T12:33:09.411Z,34.72
2022-11-12T12:35:26.484Z,30.25
2022-11-12T12:38:01.449Z,40.25
2022-11-12T12:40:24.780Z,39.03
2022-11-12T12:42:44.899Z,30.75
2022-11-12T12:45:07.924Z,30.75
2022-11-12T12:47:13.862Z,33.17
2022-11-12T12:49:21.560Z,26.75
2022-11-12T12:51:23.818Z,27.83
2022-11-12T12:53:25.199Z,32.97
2022-11-12T12:55:38.586Z,34.45
2022-11-12T12:57:40.404Z,33.33
2022-11-12T12:59:42.305Z,32.13
2022-11-12T13:01:43.788Z,34.70
2022-11-12T13:04:04.640Z,26.77
2022-11-12T13:06:32.106Z,24.98
2022-11-12T13:08:37.019Z,27.48
2022-11-12T13:10:41.540Z,31.75
2022-11-12T13:13:05.036Z,30.55
2022-11-12T13:15:15.460Z,31.48
2022-11-12T13:17:44.660Z,34.70
2022-11-12T13:20:06.785Z,27.85
2022-11-12T13:22:18.120Z,35.58
2022-11-12T13:24:57.989Z,27.92
2022-11-12T13:29:29.432Z,103.32
2022-11-12T13:31:30.918Z,46.75
2022-11-12T13:33:33.760Z,109.22
2022-11-12T13:35:37.498Z,95.40
2022-11-12T13:38:08.035Z,178.65
2022-11-12T13:40:14.579Z,419.63
2022-11-12T13:42:37.366Z,422.60
2022-11-12T13:44:38.866Z,442.48
2022-11-12T13:46:40.815Z,442.58
2022-11-12T13:49:08.692Z,150.23
2022-11-12T13:51:16.400Z,545.15
2022-11-12T13:53:23.292Z,273.77
2022-11-12T13:55:24.808Z,371.15
2022-11-12T13:57:29.197Z,160.85
2022-11-12T13:59:30.686Z,109.40
2022-11-12T14:01:32.692Z,165.20
2022-11-12T14:04:07.085Z,439.00
2022-11-12T14:06:21.042Z,104.50
2022-11-12T14:08:35.022Z,82.30
2022-11-12T14:10:55.204Z,106.13
2022-11-12T14:13:22.645Z,54.00
2022-11-12T14:15:47.995Z,107.13
2022-11-12T14:18:04.037Z,62.45
2022-11-12T14:20:20.747Z,123.07
2022-11-12T14:22:22.597Z,59.60
2022-11-12T14:24:24.327Z,80.13
2022-11-12T14:26:42.183Z,104.68
2022-11-12T14:28:43.633Z,100.18
2022-11-12T14:30:45.355Z,66.60
2022-11-12T14:32:53.441Z,48.75
2022-11-12T14:34:54.897Z,94.45
2022-11-12T14:36:57.504Z,53.08
2022-11-12T14:38:59.671Z,44.65
2022-11-12T14:41:09.235Z,53.10
2022-11-12T14:43:28.139Z,44.13
2022-11-12T14:45:34.171Z,36.50
2022-11-12T14:47:36.891Z,36.42
2022-11-12T14:49:44.776Z,33.13
2022-11-12T14:52:04.075Z,38.92
2022-11-12T14:54:09.720Z,34.53
2022-11-12T14:56:22.508Z,31.33
2022-11-12T14:58:24.721Z,32.60
2022-11-12T15:00:32.047Z,35.83
2022-11-12T15:02:50.353Z,50.97
2022-11-12T15:05:01.194Z,48.00
2022-11-12T15:07:03.026Z,41.10
2022-11-12T15:09:05.396Z,40.38
2022-11-12T15:11:21.648Z,35.20
2022-11-12T15:13:27.608Z,39.63
2022-11-12T15:15:29.732Z,43.13
2022-11-12T15:17:34.537Z,45.75
2022-11-12T15:19:41.688Z,53.45
2022-11-12T15:21:49.517Z,56.72
2022-11-12T15:23:58.913Z,49.45
2022-11-12T15:26:01.641Z,48.05
2022-11-12T15:28:26.153Z,46.92
2022-11-12T15:30:30.753Z,52.50
2022-11-12T15:32:34.172Z,50.40
2022-11-12T15:34:41.533Z,51.38
2022-11-12T15:36:43.233Z,52.28
2022-11-12T15:38:52.845Z,51.53
2022-11-12T15:40:57.643Z,49.80
2022-11-12T15:43:01.753Z,41.72
2022-11-12T15:45:10.602Z,49.47
2022-11-12T15:47:20.985Z,52.57
2022-11-12T15:49:22.561Z,78.93
2022-11-12T15:51:24.026Z,48.17
2022-11-12T15:53:25.877Z,66.28
2022-11-12T15:55:27.857Z,58.05
2022-11-12T15:57:31.662Z,59.75
2022-11-12T15:59:33.158Z,51.28
2022-11-12T16:01:35.070Z,56.78
2022-11-12T16:03:36.718Z,98.55
2022-11-12T16:05:38.212Z,54.80
2022-11-12T16:07:39.652Z,58.60
2022-11-12T16:09:41.168Z,57.33
2022-11-12T16:11:42.944Z,58.40
2022-11-12T16:13:44.466Z,52.78
2022-11-12T16:15:46.138Z,49.45
2022-11-12T16:17:48.133Z,72.13
2022-11-12T16:19:49.639Z,46.28
2022-11-12T16:21:51.217Z,50.72
2022-11-12T16:23:52.720Z,43.38
2022-11-12T16:25:54.274Z,41.20
2022-11-12T16:27:57.584Z,47.70
2022-11-12T16:29:59.055Z,50.40
2022-11-12T16:32:00.511Z,53.13
2022-11-12T16:34:02.021Z,57.08
2022-11-12T16:36:04.092Z,51.22
2022-11-12T16:38:14.562Z,59.45
2022-11-12T16:40:22.166Z,86.88
2022-11-12T16:42:23.674Z,59.47
2022-11-12T16:44:25.135Z,83.40
2022-11-12T16:46:31.211Z,140.80
2022-11-12T16:48:32.859Z,90.93
2022-11-12T16:50:34.371Z,85.90
2022-11-12T16:52:36.019Z,92.07
2022-11-12T16:54:37.563Z,84.97
2022-11-12T16:56:39.328Z,71.70
2022-11-12T16:58:41.327Z,85.32
2022-11-12T17:00:45.808Z,106.75
2022-11-12T17:02:52.244Z,84.50
2022-11-12T17:04:55.018Z,86.03
2022-11-12T17:06:56.514Z,96.75
2022-11-12T17:08:58.070Z,84.32
2022-11-12T17:11:06.109Z,87.10
2022-11-12T17:13:11.808Z,77.90
2022-11-12T17:15:13.347Z,71.88
2022-11-12T17:17:14.843Z,68.38
2022-11-12T17:19:16.379Z,68.90
2022-11-12T17:21:18.931Z,61.97
2022-11-12T17:23:20.494Z,83.65
2022-11-12T17:25:22.008Z,89.00
2022-11-12T17:27:23.605Z,89.78
2022-11-12T17:29:25.074Z,67.88
2022-11-12T17:31:26.798Z,64.45
2022-11-12T17:33:28.670Z,66.97
2022-11-12T17:35:33.254Z,68.47
2022-11-12T17:37:34.716Z,86.32
2022-11-12T17:39:36.339Z,77.97
2022-11-12T17:41:37.909Z,64.80
2022-11-12T17:43:40.049Z,58.22
2022-11-12T17:45:49.981Z,55.10
2022-11-12T17:47:51.964Z,57.15
2022-11-12T17:49:53.416Z,55.80
2022-11-12T17:51:55.109Z,59.17
2022-11-12T17:53:56.561Z,125.22
2022-11-12T17:55:58.746Z,65.82
2022-11-12T17:58:00.331Z,60.63
2022-11-12T18:00:01.853Z,62.90
2022-11-12T18:02:03.434Z,58.20
2022-11-12T18:04:05.083Z,60.03
2022-11-12T18:06:09.552Z,54.67
2022-11-12T18:08:11.111Z,61.15
2022-11-12T18:10:18.326Z,59.58
2022-11-12T18:12:21.039Z,67.93
2022-11-12T18:14:23.306Z,82.90
2022-11-12T18:16:27.117Z,78.57
2022-11-12T18:18:29.687Z,76.25
2022-11-12T18:20:31.252Z,60.78
2022-11-12T18:22:32.769Z,68.50
2022-11-12T18:24:34.273Z,57.83
2022-11-12T18:26:35.717Z,67.85
2022-11-12T18:28:37.214Z,71.55
2022-11-12T18:30:39.349Z,68.85
2022-11-12T18:32:42.390Z,73.97
2022-11-12T18:34:45.222Z,64.00
2022-11-12T18:36:46.802Z,58.15
2022-11-12T18:38:50.154Z,63.80
2022-11-12T18:41:07.175Z,61.33
2022-11-12T18:43:08.616Z,61.65
2022-11-12T18:45:10.416Z,40.90
2022-11-12T18:47:11.930Z,57.38
2022-11-12T18:49:13.455Z,70.28
2022-11-12T18:51:17.050Z,52.03
2022-11-12T18:53:18.556Z,76.22
2022-11-12T18:55:20.152Z,58.83
2022-11-12T18:57:22.527Z,68.88
2022-11-12T18:59:30.365Z,72.93
2022-11-12T19:01:32.268Z,88.15
2022-11-12T19:03:33.744Z,80.25
2022-11-12T19:05:35.328Z,88.10
2022-11-12T19:07:36.804Z,81.93
2022-11-12T19:09:38.304Z,87.05
2022-11-12T19:11:39.836Z,77.30
2022-11-12T19:13:42.256Z,57.70
2022-11-12T19:15:43.766Z,69.35
2022-11-12T19:17:45.250Z,66.40
2022-11-12T19:19:46.740Z,66.20
2022-11-12T19:21:48.922Z,70.22
2022-11-12T19:23:54.387Z,71.45
2022-11-12T19:25:56.669Z,69.90
2022-11-12T19:27:58.205Z,76.55
2022-11-12T19:30:02.934Z,63.85
2022-11-12T19:32:05.100Z,56.75
2022-11-12T19:34:06.585Z,62.65
2022-11-12T19:36:14.527Z,69.72
2022-11-12T19:38:16.059Z,64.30
2022-11-12T19:40:17.520Z,62.08
2022-11-12T19:42:19.132Z,77.18
2022-11-12T19:44:21.415Z,79.25
2022-11-12T19:46:22.969Z,63.13
2022-11-12T19:48:24.993Z,63.85
2022-11-12T19:50:26.797Z,62.83
2022-11-12T19:52:28.288Z,76.32
2022-11-12T19:54:29.787Z,71.03
2022-11-12T19:56:33.169Z,65.95
2022-11-12T19:58:34.635Z,75.10
2022-11-12T20:00:37.325Z,70.47
2022-11-12T20:02:38.770Z,43.28
2022-11-12T20:04:40.243Z,64.13
2022-11-12T20:06:41.760Z,61.42
2022-11-12T20:08:43.330Z,84.05
2022-11-12T20:10:44.909Z,82.80
2022-11-12T20:12:46.599Z,72.53
2022-11-12T20:14:48.595Z,71.43
2022-11-12T20:16:50.670Z,69.53
2022-11-12T20:18:54.411Z,71.03
2022-11-12T20:20:57.354Z,75.80
2022-11-12T20:22:58.833Z,76.20
2022-11-12T20:25:00.306Z,87.60
2022-11-12T20:27:01.968Z,102.45
2022-11-12T20:29:03.763Z,91.78
2022-11-12T20:31:08.084Z,90.65
2022-11-12T20:33:09.554Z,81.03
2022-11-12T20:35:17.904Z,97.68
2022-11-12T20:37:22.704Z,72.05
2022-11-12T20:39:24.187Z,87.38
2022-11-12T20:41:26.643Z,102.10
2022-11-12T20:43:29.364Z,78.25
2022-11-12T20:45:30.970Z,73.35
2022-11-12T20:47:33.049Z,90.35
2022-11-12T20:49:34.602Z,80.03
2022-11-12T20:51:36.376Z,84.85
2022-11-12T20:53:38.180Z,148.77
2022-11-12T20:55:39.650Z,85.15
2022-11-12T20:57:41.170Z,95.00
2022-11-12T20:59:43.201Z,81.15
2022-11-12T21:01:44.873Z,96.20
2022-11-12T21:03:47.097Z,161.95
2022-11-12T21:05:48.546Z,148.18
2022-11-12T21:07:50.065Z,81.03
2022-11-12T21:09:51.575Z,103.85
2022-11-12T21:11:53.524Z,101.07
2022-11-12T21:13:55.118Z,94.97
2022-11-12T21:15:56.677Z,97.22
2022-11-12T21:17:58.196Z,103.38
2022-11-12T21:19:59.790Z,98.82
2022-11-12T21:22:01.283Z,75.65
2022-11-12T21:24:05.056Z,93.47
2022-11-12T21:26:10.549Z,83.43
2022-11-12T21:28:12.014Z,71.45
2022-11-12T21:30:13.579Z,84.70
2022-11-12T21:32:15.076Z,83.43
2022-11-12T21:34:16.538Z,77.90
2022-11-12T21:36:20.152Z,82.95
2022-11-12T21:38:23.195Z,76.63
2022-11-12T21:40:25.316Z,84.55
2022-11-12T21:42:26.846Z,78.72
2022-11-12T21:44:28.348Z,80.95
2022-11-12T21:46:31.612Z,75.53
2022-11-12T21:48:33.071Z,118.63
2022-11-12T21:50:34.551Z,84.72
2022-11-12T21:52:35.976Z,75.60
2022-11-12T21:54:37.550Z,61.15
2022-11-12T21:56:40.231Z,66.88
2022-11-12T21:58:42.155Z,71.63
2022-11-12T22:00:43.870Z,62.90
2022-11-12T22:02:45.390Z,76.00
2022-11-12T22:04:46.858Z,73.15
2022-11-12T22:06:48.315Z,77.63
2022-11-12T22:08:54.268Z,83.13
2022-11-12T22:11:03.975Z,77.30
2022-11-12T22:13:25.922Z,80.70
2022-11-12T22:15:27.078Z,84.57
2022-11-12T22:17:28.602Z,104.68
2022-11-12T22:19:30.818Z,90.80
2022-11-12T22:21:38.387Z,100.22
2022-11-12T22:23:41.417Z,82.07
2022-11-12T22:25:42.900Z,83.45
2022-11-12T22:27:44.385Z,92.88
2022-11-12T22:29:47.274Z,92.50
2022-11-12T22:31:48.733Z,85.38
2022-11-12T22:33:50.602Z,88.43
2022-11-12T22:35:52.104Z,89.88
2022-11-12T22:37:54.494Z,77.50
2022-11-12T22:39:55.985Z,75.78
2022-11-12T22:41:57.546Z,82.03
2022-11-12T22:44:01.115Z,86.18
2022-11-12T22:46:07.400Z,90.75
2022-11-12T22:48:09.188Z,67.13
2022-11-12T22:50:10.700Z,58.47
2022-11-12T22:52:12.495Z,64.60
2022-11-12T22:54:18.005Z,69.28
2022-11-12T22:56:19.503Z,86.85
2022-11-12T22:58:22.039Z,85.22
2022-11-12T23:00:29.958Z,68.93
2022-11-12T23:02:31.487Z,75.35
2022-11-12T23:04:32.965Z,70.25
2022-11-12T23:06:34.988Z,73.85
2022-11-12T23:08:36.564Z,75.55
2022-11-12T23:10:43.035Z,77.70
2022-11-12T23:12:47.183Z,75.20
2022-11-12T23:14:48.656Z,77.93
2022-11-12T23:16:50.220Z,67.07
2022-11-12T23:18:53.347Z,77.57
2022-11-12T23:21:00.688Z,75.70
2022-11-12T23:23:02.178Z,82.50
2022-11-12T23:25:03.893Z,82.07
2022-11-12T23:27:05.367Z,92.05
2022-11-12T23:29:06.950Z,72.50
2022-11-12T23:31:23.583Z,67.90
2022-11-12T23:33:25.176Z,79.15
2022-11-12T23:35:28.003Z,70.20
2022-11-12T23:37:29.424Z,70.72
2022-11-12T23:39:30.957Z,69.85
2022-11-12T23:41:32.432Z,70.35
2022-11-12T23:43:34.022Z,66.20
2022-11-12T23:45:37.216Z,69.70
2022-11-12T23:47:38.955Z,72.57
2022-11-12T23:49:40.484Z,71.75
2022-11-12T23:51:42.008Z,76.50
2022-11-12T23:53:43.619Z,81.38
2022-11-12T23:55:45.085Z,81.35
2022-11-12T23:57:46.504Z,75.50
2022-11-12T23:59:48.118Z,87.32
